sensor_id;sensor_type;location;lat;lon;timestamp;P1;durP1;ratioP1;P2;durP2;ratioP2
13028;SDS011;6581;42.662;23.402;2024-03-02T00:00:08;23.48;;;11.25;;
13028;SDS011;6581;42.662;23.402;2024-03-02T00:02:45;25.90;;;11.32;;
13028;SDS011;6581;42.662;23.402;2024-03-02T00:05:13;26.45;;;12.35;;
13028;SDS011;6581;42.662;23.402;2024-03-02T00:07:44;26.73;;;12.10;;
13028;SDS011;6581;42.662;23.402;2024-03-02T00:10:15;24.55;;;11.68;;
13028;SDS011;6581;42.662;23.402;2024-03-02T00:12:45;26.63;;;11.07;;
13028;SDS011;6581;42.662;23.402;2024-03-02T00:15:25;23.98;;;10.20;;
13028;SDS011;6581;42.662;23.402;2024-03-02T00:17:56;24.73;;;12.43;;
13028;SDS011;6581;42.662;23.402;2024-03-02T00:20:24;26.13;;;12.25;;
13028;SDS011;6581;42.662;23.402;2024-03-02T00:22:55;23.10;;;10.60;;
13028;SDS011;6581;42.662;23.402;2024-03-02T00:25:31;26.42;;;11.57;;
13028;SDS011;6581;42.662;23.402;2024-03-02T00:28:04;24.00;;;10.82;;
13028;SDS011;6581;42.662;23.402;2024-03-02T00:33:19;25.45;;;11.20;;
13028;SDS011;6581;42.662;23.402;2024-03-02T00:35:46;27.65;;;12.38;;
13028;SDS011;6581;42.662;23.402;2024-03-02T00:38:12;27.90;;;12.00;;
13028;SDS011;6581;42.662;23.402;2024-03-02T00:40:39;29.42;;;12.50;;
13028;SDS011;6581;42.662;23.402;2024-03-02T00:43:05;27.65;;;13.25;;
13028;SDS011;6581;42.662;23.402;2024-03-02T00:45:30;26.02;;;12.60;;
13028;SDS011;6581;42.662;23.402;2024-03-02T00:47:56;24.50;;;11.77;;
13028;SDS011;6581;42.662;23.402;2024-03-02T00:50:22;28.42;;;11.82;;
13028;SDS011;6581;42.662;23.402;2024-03-02T00:52:48;25.48;;;11.95;;
13028;SDS011;6581;42.662;23.402;2024-03-02T00:55:14;25.05;;;11.38;;
13028;SDS011;6581;42.662;23.402;2024-03-02T00:57:39;27.02;;;12.52;;
13028;SDS011;6581;42.662;23.402;2024-03-02T01:00:06;26.10;;;12.20;;
13028;SDS011;6581;42.662;23.402;2024-03-02T01:02:35;28.15;;;12.20;;
13028;SDS011;6581;42.662;23.402;2024-03-02T01:05:01;27.05;;;11.95;;
13028;SDS011;6581;42.662;23.402;2024-03-02T01:07:26;27.85;;;13.45;;
13028;SDS011;6581;42.662;23.402;2024-03-02T01:09:52;26.30;;;12.15;;
13028;SDS011;6581;42.662;23.402;2024-03-02T01:12:17;27.08;;;12.40;;
13028;SDS011;6581;42.662;23.402;2024-03-02T01:14:43;28.63;;;12.55;;
13028;SDS011;6581;42.662;23.402;2024-03-02T01:17:08;28.33;;;12.77;;
13028;SDS011;6581;42.662;23.402;2024-03-02T01:19:34;28.77;;;11.95;;
13028;SDS011;6581;42.662;23.402;2024-03-02T01:21:59;28.23;;;12.40;;
13028;SDS011;6581;42.662;23.402;2024-03-02T01:24:25;27.48;;;13.05;;
13028;SDS011;6581;42.662;23.402;2024-03-02T01:26:50;28.85;;;12.70;;
13028;SDS011;6581;42.662;23.402;2024-03-02T01:29:16;28.25;;;12.48;;
13028;SDS011;6581;42.662;23.402;2024-03-02T01:31:41;31.05;;;14.13;;
13028;SDS011;6581;42.662;23.402;2024-03-02T01:34:07;31.58;;;13.98;;
13028;SDS011;6581;42.662;23.402;2024-03-02T01:36:33;27.10;;;13.48;;
13028;SDS011;6581;42.662;23.402;2024-03-02T01:38:59;27.35;;;12.55;;
13028;SDS011;6581;42.662;23.402;2024-03-02T01:41:24;27.50;;;12.80;;
13028;SDS011;6581;42.662;23.402;2024-03-02T01:43:50;30.45;;;14.18;;
13028;SDS011;6581;42.662;23.402;2024-03-02T01:46:15;25.08;;;11.70;;
13028;SDS011;6581;42.662;23.402;2024-03-02T01:48:41;27.77;;;13.90;;
13028;SDS011;6581;42.662;23.402;2024-03-02T01:51:07;28.88;;;12.63;;
13028;SDS011;6581;42.662;23.402;2024-03-02T01:53:33;29.10;;;13.27;;
13028;SDS011;6581;42.662;23.402;2024-03-02T01:55:59;25.73;;;11.93;;
13028;SDS011;6581;42.662;23.402;2024-03-02T01:58:26;26.05;;;12.23;;
13028;SDS011;6581;42.662;23.402;2024-03-02T02:00:52;28.60;;;12.43;;
13028;SDS011;6581;42.662;23.402;2024-03-02T02:03:17;26.63;;;12.52;;
13028;SDS011;6581;42.662;23.402;2024-03-02T02:05:43;28.98;;;12.75;;
13028;SDS011;6581;42.662;23.402;2024-03-02T02:08:09;27.83;;;13.32;;
13028;SDS011;6581;42.662;23.402;2024-03-02T02:10:34;30.48;;;13.40;;
13028;SDS011;6581;42.662;23.402;2024-03-02T02:13:00;30.45;;;13.77;;
13028;SDS011;6581;42.662;23.402;2024-03-02T02:15:26;33.08;;;15.10;;
13028;SDS011;6581;42.662;23.402;2024-03-02T02:17:53;31.77;;;13.60;;
13028;SDS011;6581;42.662;23.402;2024-03-02T02:20:19;31.08;;;13.45;;
13028;SDS011;6581;42.662;23.402;2024-03-02T02:25:26;30.98;;;13.52;;
13028;SDS011;6581;42.662;23.402;2024-03-02T02:27:53;36.28;;;15.15;;
13028;SDS011;6581;42.662;23.402;2024-03-02T02:30:19;40.55;;;16.92;;
13028;SDS011;6581;42.662;23.402;2024-03-02T02:32:51;31.75;;;14.63;;
13028;SDS011;6581;42.662;23.402;2024-03-02T02:35:17;33.83;;;13.60;;
13028;SDS011;6581;42.662;23.402;2024-03-02T02:37:43;37.33;;;14.65;;
13028;SDS011;6581;42.662;23.402;2024-03-02T02:40:10;31.88;;;14.27;;
13028;SDS011;6581;42.662;23.402;2024-03-02T02:42:37;32.72;;;13.52;;
13028;SDS011;6581;42.662;23.402;2024-03-02T02:45:02;35.40;;;14.60;;
13028;SDS011;6581;42.662;23.402;2024-03-02T02:47:28;31.02;;;13.50;;
13028;SDS011;6581;42.662;23.402;2024-03-02T02:49:54;36.58;;;15.00;;
13028;SDS011;6581;42.662;23.402;2024-03-02T02:52:20;37.45;;;16.42;;
13028;SDS011;6581;42.662;23.402;2024-03-02T02:54:46;35.80;;;16.85;;
13028;SDS011;6581;42.662;23.402;2024-03-02T02:57:11;48.22;;;18.90;;
13028;SDS011;6581;42.662;23.402;2024-03-02T02:59:37;39.78;;;17.02;;
13028;SDS011;6581;42.662;23.402;2024-03-02T03:02:02;32.95;;;15.63;;
13028;SDS011;6581;42.662;23.402;2024-03-02T03:04:28;35.47;;;14.98;;
13028;SDS011;6581;42.662;23.402;2024-03-02T03:06:53;37.70;;;14.40;;
13028;SDS011;6581;42.662;23.402;2024-03-02T03:09:19;29.27;;;15.10;;
13028;SDS011;6581;42.662;23.402;2024-03-02T03:11:44;34.70;;;14.25;;
13028;SDS011;6581;42.662;23.402;2024-03-02T03:14:10;30.35;;;14.40;;
13028;SDS011;6581;42.662;23.402;2024-03-02T03:16:35;27.92;;;13.15;;
13028;SDS011;6581;42.662;23.402;2024-03-02T03:19:01;34.85;;;14.13;;
13028;SDS011;6581;42.662;23.402;2024-03-02T03:21:26;35.72;;;15.45;;
13028;SDS011;6581;42.662;23.402;2024-03-02T03:23:52;31.15;;;14.02;;
13028;SDS011;6581;42.662;23.402;2024-03-02T03:26:17;31.35;;;14.32;;
13028;SDS011;6581;42.662;23.402;2024-03-02T03:28:43;29.42;;;14.80;;
13028;SDS011;6581;42.662;23.402;2024-03-02T03:31:08;32.85;;;14.02;;
13028;SDS011;6581;42.662;23.402;2024-03-02T03:33:34;30.75;;;14.05;;
13028;SDS011;6581;42.662;23.402;2024-03-02T03:35:59;29.48;;;13.63;;
13028;SDS011;6581;42.662;23.402;2024-03-02T03:38:25;32.85;;;14.63;;
13028;SDS011;6581;42.662;23.402;2024-03-02T03:40:51;28.23;;;13.63;;
13028;SDS011;6581;42.662;23.402;2024-03-02T03:43:16;30.55;;;13.48;;
13028;SDS011;6581;42.662;23.402;2024-03-02T03:45:41;28.65;;;13.40;;
13028;SDS011;6581;42.662;23.402;2024-03-02T03:48:07;27.08;;;12.52;;
13028;SDS011;6581;42.662;23.402;2024-03-02T03:50:33;28.67;;;12.77;;
13028;SDS011;6581;42.662;23.402;2024-03-02T03:52:58;26.67;;;13.02;;
13028;SDS011;6581;42.662;23.402;2024-03-02T03:55:24;29.75;;;12.65;;
13028;SDS011;6581;42.662;23.402;2024-03-02T03:57:49;27.30;;;12.50;;
13028;SDS011;6581;42.662;23.402;2024-03-02T04:00:15;28.55;;;12.32;;
13028;SDS011;6581;42.662;23.402;2024-03-02T04:02:40;30.77;;;13.40;;
13028;SDS011;6581;42.662;23.402;2024-03-02T04:05:06;28.88;;;12.38;;
13028;SDS011;6581;42.662;23.402;2024-03-02T04:07:36;27.80;;;12.95;;
13028;SDS011;6581;42.662;23.402;2024-03-02T04:10:11;28.08;;;13.65;;
13028;SDS011;6581;42.662;23.402;2024-03-02T04:12:37;26.98;;;12.27;;
13028;SDS011;6581;42.662;23.402;2024-03-02T04:15:06;28.10;;;12.63;;
13028;SDS011;6581;42.662;23.402;2024-03-02T04:17:32;32.55;;;12.88;;
13028;SDS011;6581;42.662;23.402;2024-03-02T04:19:59;31.67;;;13.57;;
13028;SDS011;6581;42.662;23.402;2024-03-02T04:22:25;29.48;;;13.00;;
13028;SDS011;6581;42.662;23.402;2024-03-02T04:24:51;28.88;;;12.60;;
13028;SDS011;6581;42.662;23.402;2024-03-02T04:27:17;26.35;;;11.55;;
13028;SDS011;6581;42.662;23.402;2024-03-02T04:29:42;26.60;;;12.32;;
13028;SDS011;6581;42.662;23.402;2024-03-02T04:32:07;27.80;;;12.80;;
13028;SDS011;6581;42.662;23.402;2024-03-02T04:34:33;31.40;;;12.82;;
13028;SDS011;6581;42.662;23.402;2024-03-02T04:36:58;29.85;;;13.20;;
13028;SDS011;6581;42.662;23.402;2024-03-02T04:39:24;29.42;;;12.65;;
13028;SDS011;6581;42.662;23.402;2024-03-02T04:41:50;34.65;;;13.25;;
13028;SDS011;6581;42.662;23.402;2024-03-02T04:44:15;36.13;;;15.60;;
13028;SDS011;6581;42.662;23.402;2024-03-02T04:46:40;40.15;;;15.25;;
13028;SDS011;6581;42.662;23.402;2024-03-02T04:49:06;35.75;;;15.35;;
13028;SDS011;6581;42.662;23.402;2024-03-02T04:51:31;30.80;;;13.43;;
13028;SDS011;6581;42.662;23.402;2024-03-02T04:53:57;30.63;;;13.68;;
13028;SDS011;6581;42.662;23.402;2024-03-02T04:56:22;27.40;;;12.30;;
13028;SDS011;6581;42.662;23.402;2024-03-02T04:58:57;28.35;;;13.27;;
13028;SDS011;6581;42.662;23.402;2024-03-02T05:01:22;29.50;;;13.20;;
13028;SDS011;6581;42.662;23.402;2024-03-02T05:03:48;29.33;;;13.13;;
13028;SDS011;6581;42.662;23.402;2024-03-02T05:06:13;31.30;;;13.60;;
13028;SDS011;6581;42.662;23.402;2024-03-02T05:08:39;28.83;;;13.95;;
13028;SDS011;6581;42.662;23.402;2024-03-02T05:11:04;28.52;;;13.73;;
13028;SDS011;6581;42.662;23.402;2024-03-02T05:13:48;32.15;;;14.25;;
13028;SDS011;6581;42.662;23.402;2024-03-02T05:16:14;38.13;;;15.23;;
13028;SDS011;6581;42.662;23.402;2024-03-02T05:18:39;37.25;;;16.17;;
13028;SDS011;6581;42.662;23.402;2024-03-02T05:21:05;36.80;;;14.30;;
13028;SDS011;6581;42.662;23.402;2024-03-02T05:23:30;35.47;;;14.10;;
13028;SDS011;6581;42.662;23.402;2024-03-02T05:25:56;34.78;;;13.98;;
13028;SDS011;6581;42.662;23.402;2024-03-02T05:28:21;31.80;;;13.85;;
13028;SDS011;6581;42.662;23.402;2024-03-02T05:30:47;31.90;;;13.80;;
13028;SDS011;6581;42.662;23.402;2024-03-02T05:33:12;36.08;;;14.57;;
13028;SDS011;6581;42.662;23.402;2024-03-02T05:35:38;37.70;;;15.60;;
13028;SDS011;6581;42.662;23.402;2024-03-02T05:38:03;38.28;;;14.63;;
13028;SDS011;6581;42.662;23.402;2024-03-02T05:40:29;40.05;;;15.85;;
13028;SDS011;6581;42.662;23.402;2024-03-02T05:42:54;34.65;;;14.48;;
13028;SDS011;6581;42.662;23.402;2024-03-02T05:45:19;34.88;;;14.82;;
13028;SDS011;6581;42.662;23.402;2024-03-02T05:47:45;33.67;;;14.63;;
13028;SDS011;6581;42.662;23.402;2024-03-02T05:50:10;38.50;;;15.77;;
13028;SDS011;6581;42.662;23.402;2024-03-02T05:52:36;38.20;;;14.77;;
13028;SDS011;6581;42.662;23.402;2024-03-02T05:55:01;36.25;;;14.85;;
13028;SDS011;6581;42.662;23.402;2024-03-02T05:57:29;37.28;;;16.02;;
13028;SDS011;6581;42.662;23.402;2024-03-02T06:00:09;38.22;;;15.73;;
13028;SDS011;6581;42.662;23.402;2024-03-02T06:02:38;38.58;;;15.48;;
13028;SDS011;6581;42.662;23.402;2024-03-02T06:05:04;35.63;;;15.55;;
13028;SDS011;6581;42.662;23.402;2024-03-02T06:07:32;34.70;;;14.70;;
13028;SDS011;6581;42.662;23.402;2024-03-02T06:09:57;34.72;;;14.50;;
13028;SDS011;6581;42.662;23.402;2024-03-02T06:12:23;33.92;;;14.25;;
13028;SDS011;6581;42.662;23.402;2024-03-02T06:14:49;32.97;;;14.18;;
13028;SDS011;6581;42.662;23.402;2024-03-02T06:17:14;34.42;;;14.35;;
13028;SDS011;6581;42.662;23.402;2024-03-02T06:19:40;39.13;;;15.75;;
13028;SDS011;6581;42.662;23.402;2024-03-02T06:22:05;37.83;;;15.57;;
13028;SDS011;6581;42.662;23.402;2024-03-02T06:24:31;39.70;;;16.15;;
13028;SDS011;6581;42.662;23.402;2024-03-02T06:26:56;38.85;;;17.70;;
13028;SDS011;6581;42.662;23.402;2024-03-02T06:29:22;41.78;;;16.38;;
13028;SDS011;6581;42.662;23.402;2024-03-02T06:31:47;42.42;;;17.70;;
13028;SDS011;6581;42.662;23.402;2024-03-02T06:34:13;45.45;;;19.42;;
13028;SDS011;6581;42.662;23.402;2024-03-02T06:36:38;42.65;;;16.33;;
13028;SDS011;6581;42.662;23.402;2024-03-02T06:39:05;48.53;;;18.25;;
13028;SDS011;6581;42.662;23.402;2024-03-02T06:41:31;41.97;;;17.80;;
13028;SDS011;6581;42.662;23.402;2024-03-02T06:43:56;48.47;;;18.98;;
13028;SDS011;6581;42.662;23.402;2024-03-02T06:46:25;40.15;;;16.02;;
13028;SDS011;6581;42.662;23.402;2024-03-02T06:48:50;41.28;;;15.23;;
13028;SDS011;6581;42.662;23.402;2024-03-02T06:51:16;41.83;;;16.63;;
13028;SDS011;6581;42.662;23.402;2024-03-02T06:53:42;34.70;;;15.45;;
13028;SDS011;6581;42.662;23.402;2024-03-02T06:56:07;47.60;;;18.20;;
13028;SDS011;6581;42.662;23.402;2024-03-02T06:58:33;41.65;;;17.50;;
13028;SDS011;6581;42.662;23.402;2024-03-02T07:00:59;45.58;;;17.15;;
13028;SDS011;6581;42.662;23.402;2024-03-02T07:03:25;42.85;;;17.20;;
13028;SDS011;6581;42.662;23.402;2024-03-02T07:05:51;39.10;;;16.42;;
13028;SDS011;6581;42.662;23.402;2024-03-02T07:08:16;40.20;;;15.27;;
13028;SDS011;6581;42.662;23.402;2024-03-02T07:10:42;37.88;;;15.43;;
13028;SDS011;6581;42.662;23.402;2024-03-02T07:13:07;36.08;;;15.25;;
13028;SDS011;6581;42.662;23.402;2024-03-02T07:15:33;37.75;;;15.35;;
13028;SDS011;6581;42.662;23.402;2024-03-02T07:18:02;38.10;;;16.50;;
13028;SDS011;6581;42.662;23.402;2024-03-02T07:20:27;35.33;;;14.52;;
13028;SDS011;6581;42.662;23.402;2024-03-02T07:22:53;36.10;;;15.07;;
13028;SDS011;6581;42.662;23.402;2024-03-02T07:25:18;32.83;;;13.48;;
13028;SDS011;6581;42.662;23.402;2024-03-02T07:27:44;47.03;;;16.17;;
13028;SDS011;6581;42.662;23.402;2024-03-02T07:30:09;36.50;;;14.82;;
13028;SDS011;6581;42.662;23.402;2024-03-02T07:32:38;37.28;;;14.05;;
13028;SDS011;6581;42.662;23.402;2024-03-02T07:35:04;36.00;;;14.88;;
13028;SDS011;6581;42.662;23.402;2024-03-02T07:37:30;37.60;;;15.93;;
13028;SDS011;6581;42.662;23.402;2024-03-02T07:39:55;40.38;;;15.10;;
13028;SDS011;6581;42.662;23.402;2024-03-02T07:42:21;36.10;;;15.15;;
13028;SDS011;6581;42.662;23.402;2024-03-02T07:44:46;30.08;;;14.32;;
13028;SDS011;6581;42.662;23.402;2024-03-02T07:47:12;34.72;;;13.60;;
13028;SDS011;6581;42.662;23.402;2024-03-02T07:49:38;36.15;;;14.32;;
13028;SDS011;6581;42.662;23.402;2024-03-02T07:52:03;34.63;;;13.93;;
13028;SDS011;6581;42.662;23.402;2024-03-02T07:54:29;34.63;;;14.35;;
13028;SDS011;6581;42.662;23.402;2024-03-02T07:56:54;34.55;;;13.68;;
13028;SDS011;6581;42.662;23.402;2024-03-02T07:59:20;29.92;;;13.20;;
13028;SDS011;6581;42.662;23.402;2024-03-02T08:01:47;37.13;;;14.70;;
13028;SDS011;6581;42.662;23.402;2024-03-02T08:04:14;34.72;;;14.43;;
13028;SDS011;6581;42.662;23.402;2024-03-02T08:06:39;39.45;;;16.15;;
13028;SDS011;6581;42.662;23.402;2024-03-02T08:09:05;35.13;;;14.05;;
13028;SDS011;6581;42.662;23.402;2024-03-02T08:11:34;35.80;;;13.80;;
13028;SDS011;6581;42.662;23.402;2024-03-02T08:14:00;26.83;;;12.80;;
13028;SDS011;6581;42.662;23.402;2024-03-02T08:16:25;28.50;;;11.30;;
13028;SDS011;6581;42.662;23.402;2024-03-02T08:18:51;31.20;;;13.27;;
13028;SDS011;6581;42.662;23.402;2024-03-02T08:21:17;27.60;;;12.95;;
13028;SDS011;6581;42.662;23.402;2024-03-02T08:23:43;31.02;;;13.00;;
13028;SDS011;6581;42.662;23.402;2024-03-02T08:26:09;34.67;;;12.98;;
13028;SDS011;6581;42.662;23.402;2024-03-02T08:28:35;34.30;;;13.45;;
13028;SDS011;6581;42.662;23.402;2024-03-02T08:31:05;34.17;;;14.07;;
13028;SDS011;6581;42.662;23.402;2024-03-02T08:33:31;31.98;;;13.32;;
13028;SDS011;6581;42.662;23.402;2024-03-02T08:35:57;39.30;;;16.65;;
13028;SDS011;6581;42.662;23.402;2024-03-02T08:38:23;38.17;;;15.30;;
13028;SDS011;6581;42.662;23.402;2024-03-02T08:40:49;39.55;;;14.82;;
13028;SDS011;6581;42.662;23.402;2024-03-02T08:43:15;35.42;;;13.77;;
13028;SDS011;6581;42.662;23.402;2024-03-02T08:45:40;35.80;;;16.13;;
13028;SDS011;6581;42.662;23.402;2024-03-02T08:48:09;40.35;;;17.35;;
13028;SDS011;6581;42.662;23.402;2024-03-02T08:50:35;40.22;;;17.00;;
13028;SDS011;6581;42.662;23.402;2024-03-02T08:53:01;38.80;;;15.55;;
13028;SDS011;6581;42.662;23.402;2024-03-02T08:55:27;36.85;;;14.73;;
13028;SDS011;6581;42.662;23.402;2024-03-02T08:57:53;36.05;;;14.23;;
13028;SDS011;6581;42.662;23.402;2024-03-02T09:00:18;34.35;;;14.88;;
13028;SDS011;6581;42.662;23.402;2024-03-02T09:02:44;38.13;;;15.73;;
13028;SDS011;6581;42.662;23.402;2024-03-02T09:05:10;31.10;;;13.80;;
13028;SDS011;6581;42.662;23.402;2024-03-02T09:07:36;39.22;;;16.38;;
13028;SDS011;6581;42.662;23.402;2024-03-02T09:10:04;37.17;;;15.20;;
13028;SDS011;6581;42.662;23.402;2024-03-02T09:12:30;34.30;;;14.88;;
13028;SDS011;6581;42.662;23.402;2024-03-02T09:14:55;37.95;;;15.93;;
13028;SDS011;6581;42.662;23.402;2024-03-02T09:17:21;36.47;;;15.95;;
13028;SDS011;6581;42.662;23.402;2024-03-02T09:19:47;35.95;;;16.23;;
13028;SDS011;6581;42.662;23.402;2024-03-02T09:22:12;30.15;;;13.20;;
13028;SDS011;6581;42.662;23.402;2024-03-02T09:24:38;34.72;;;14.15;;
13028;SDS011;6581;42.662;23.402;2024-03-02T09:27:03;41.00;;;17.35;;
13028;SDS011;6581;42.662;23.402;2024-03-02T09:29:29;38.13;;;16.20;;
13028;SDS011;6581;42.662;23.402;2024-03-02T09:31:55;37.25;;;14.98;;
13028;SDS011;6581;42.662;23.402;2024-03-02T09:34:20;35.58;;;13.75;;
13028;SDS011;6581;42.662;23.402;2024-03-02T09:36:47;32.05;;;13.23;;
13028;SDS011;6581;42.662;23.402;2024-03-02T09:39:12;30.38;;;13.23;;
13028;SDS011;6581;42.662;23.402;2024-03-02T09:41:39;29.13;;;12.40;;
13028;SDS011;6581;42.662;23.402;2024-03-02T09:44:05;31.90;;;13.27;;
13028;SDS011;6581;42.662;23.402;2024-03-02T09:46:31;33.63;;;12.60;;
13028;SDS011;6581;42.662;23.402;2024-03-02T09:48:58;34.72;;;14.00;;
13028;SDS011;6581;42.662;23.402;2024-03-02T09:51:24;33.40;;;14.15;;
13028;SDS011;6581;42.662;23.402;2024-03-02T09:53:50;34.92;;;15.20;;
13028;SDS011;6581;42.662;23.402;2024-03-02T09:56:15;32.85;;;13.63;;
13028;SDS011;6581;42.662;23.402;2024-03-02T09:58:41;28.80;;;13.20;;
13028;SDS011;6581;42.662;23.402;2024-03-02T10:01:07;33.38;;;13.10;;
13028;SDS011;6581;42.662;23.402;2024-03-02T10:03:35;29.05;;;12.30;;
13028;SDS011;6581;42.662;23.402;2024-03-02T10:08:46;25.02;;;11.68;;
13028;SDS011;6581;42.662;23.402;2024-03-02T10:11:32;28.63;;;11.32;;
13028;SDS011;6581;42.662;23.402;2024-03-02T10:14:07;21.08;;;10.25;;
13028;SDS011;6581;42.662;23.402;2024-03-02T10:16:39;22.40;;;9.73;;
13028;SDS011;6581;42.662;23.402;2024-03-02T10:19:22;23.25;;;10.07;;
13028;SDS011;6581;42.662;23.402;2024-03-02T10:24:15;20.45;;;10.20;;
13028;SDS011;6581;42.662;23.402;2024-03-02T10:26:41;22.23;;;10.60;;
13028;SDS011;6581;42.662;23.402;2024-03-02T10:29:11;26.08;;;11.15;;
13028;SDS011;6581;42.662;23.402;2024-03-02T10:31:41;22.83;;;10.07;;
13028;SDS011;6581;42.662;23.402;2024-03-02T10:34:08;21.27;;;9.82;;
13028;SDS011;6581;42.662;23.402;2024-03-02T10:36:35;20.92;;;9.38;;
13028;SDS011;6581;42.662;23.402;2024-03-02T10:39:04;20.23;;;9.55;;
13028;SDS011;6581;42.662;23.402;2024-03-02T10:44:09;17.83;;;8.75;;
13028;SDS011;6581;42.662;23.402;2024-03-02T10:46:36;17.55;;;8.52;;
13028;SDS011;6581;42.662;23.402;2024-03-02T10:49:03;15.18;;;7.85;;
13028;SDS011;6581;42.662;23.402;2024-03-02T10:51:31;16.25;;;7.72;;
13028;SDS011;6581;42.662;23.402;2024-03-02T10:53:58;18.42;;;9.95;;
13028;SDS011;6581;42.662;23.402;2024-03-02T11:01:47;17.25;;;8.35;;
13028;SDS011;6581;42.662;23.402;2024-03-02T11:04:15;19.63;;;9.43;;
13028;SDS011;6581;42.662;23.402;2024-03-02T11:06:51;19.40;;;9.05;;
13028;SDS011;6581;42.662;23.402;2024-03-02T11:09:22;19.35;;;9.98;;
13028;SDS011;6581;42.662;23.402;2024-03-02T11:12:03;17.95;;;8.85;;
13028;SDS011;6581;42.662;23.402;2024-03-02T11:14:35;18.17;;;8.55;;
13028;SDS011;6581;42.662;23.402;2024-03-02T11:17:05;23.63;;;10.05;;
13028;SDS011;6581;42.662;23.402;2024-03-02T11:19:32;25.75;;;11.30;;
13028;SDS011;6581;42.662;23.402;2024-03-02T11:21:59;24.55;;;11.55;;
13028;SDS011;6581;42.662;23.402;2024-03-02T11:27:09;25.92;;;10.23;;
13028;SDS011;6581;42.662;23.402;2024-03-02T11:32:06;23.02;;;9.48;;
13028;SDS011;6581;42.662;23.402;2024-03-02T11:34:39;22.23;;;10.23;;
13028;SDS011;6581;42.662;23.402;2024-03-02T11:37:10;14.57;;;6.97;;
13028;SDS011;6581;42.662;23.402;2024-03-02T11:39:37;17.98;;;8.07;;
13028;SDS011;6581;42.662;23.402;2024-03-02T11:42:05;14.82;;;7.10;;
13028;SDS011;6581;42.662;23.402;2024-03-02T11:44:34;16.95;;;7.75;;
13028;SDS011;6581;42.662;23.402;2024-03-02T11:47:01;17.27;;;8.25;;
13028;SDS011;6581;42.662;23.402;2024-03-02T11:49:49;17.10;;;7.93;;
13028;SDS011;6581;42.662;23.402;2024-03-02T11:52:16;14.32;;;7.07;;
13028;SDS011;6581;42.662;23.402;2024-03-02T11:54:46;17.38;;;8.80;;
13028;SDS011;6581;42.662;23.402;2024-03-02T11:57:14;13.35;;;6.28;;
13028;SDS011;6581;42.662;23.402;2024-03-02T11:59:41;14.00;;;5.97;;
13028;SDS011;6581;42.662;23.402;2024-03-02T12:02:12;14.05;;;7.43;;
13028;SDS011;6581;42.662;23.402;2024-03-02T12:04:42;13.70;;;7.32;;
13028;SDS011;6581;42.662;23.402;2024-03-02T12:07:08;15.50;;;7.10;;
13028;SDS011;6581;42.662;23.402;2024-03-02T12:09:34;15.10;;;7.63;;
13028;SDS011;6581;42.662;23.402;2024-03-02T12:12:07;17.20;;;8.27;;
13028;SDS011;6581;42.662;23.402;2024-03-02T12:14:36;17.85;;;8.65;;
13028;SDS011;6581;42.662;23.402;2024-03-02T12:17:03;17.65;;;8.75;;
13028;SDS011;6581;42.662;23.402;2024-03-02T12:19:29;14.77;;;7.40;;
13028;SDS011;6581;42.662;23.402;2024-03-02T12:21:56;15.73;;;7.72;;
13028;SDS011;6581;42.662;23.402;2024-03-02T12:24:22;15.10;;;7.85;;
13028;SDS011;6581;42.662;23.402;2024-03-02T12:26:51;13.98;;;7.60;;
13028;SDS011;6581;42.662;23.402;2024-03-02T12:29:17;17.08;;;8.77;;
13028;SDS011;6581;42.662;23.402;2024-03-02T12:31:44;15.88;;;8.18;;
13028;SDS011;6581;42.662;23.402;2024-03-02T12:34:16;15.23;;;7.32;;
13028;SDS011;6581;42.662;23.402;2024-03-02T12:36:42;14.00;;;7.50;;
13028;SDS011;6581;42.662;23.402;2024-03-02T12:39:09;15.52;;;7.70;;
13028;SDS011;6581;42.662;23.402;2024-03-02T12:41:37;13.52;;;7.28;;
13028;SDS011;6581;42.662;23.402;2024-03-02T12:44:03;11.35;;;6.00;;
13028;SDS011;6581;42.662;23.402;2024-03-02T12:46:29;16.23;;;7.25;;
13028;SDS011;6581;42.662;23.402;2024-03-02T12:48:55;15.18;;;7.43;;
13028;SDS011;6581;42.662;23.402;2024-03-02T12:51:21;15.68;;;7.25;;
13028;SDS011;6581;42.662;23.402;2024-03-02T12:53:52;14.25;;;7.43;;
13028;SDS011;6581;42.662;23.402;2024-03-02T12:56:21;11.13;;;5.50;;
13028;SDS011;6581;42.662;23.402;2024-03-02T12:58:47;12.35;;;5.97;;
13028;SDS011;6581;42.662;23.402;2024-03-02T13:01:14;11.93;;;5.95;;
13028;SDS011;6581;42.662;23.402;2024-03-02T13:03:40;13.73;;;6.88;;
13028;SDS011;6581;42.662;23.402;2024-03-02T13:06:06;14.55;;;6.72;;
13028;SDS011;6581;42.662;23.402;2024-03-02T13:08:33;15.32;;;6.97;;
13028;SDS011;6581;42.662;23.402;2024-03-02T13:10:59;17.40;;;8.10;;
13028;SDS011;6581;42.662;23.402;2024-03-02T13:13:24;17.25;;;7.25;;
13028;SDS011;6581;42.662;23.402;2024-03-02T13:15:50;13.70;;;8.10;;
13028;SDS011;6581;42.662;23.402;2024-03-02T13:18:20;13.00;;;6.82;;
13028;SDS011;6581;42.662;23.402;2024-03-02T13:20:46;15.07;;;7.40;;
13028;SDS011;6581;42.662;23.402;2024-03-02T13:23:12;16.17;;;7.28;;
13028;SDS011;6581;42.662;23.402;2024-03-02T13:25:38;13.73;;;7.70;;
13028;SDS011;6581;42.662;23.402;2024-03-02T13:28:03;14.27;;;7.55;;
13028;SDS011;6581;42.662;23.402;2024-03-02T13:30:29;13.63;;;7.28;;
13028;SDS011;6581;42.662;23.402;2024-03-02T13:32:54;16.30;;;7.47;;
13028;SDS011;6581;42.662;23.402;2024-03-02T13:35:20;15.05;;;7.43;;
13028;SDS011;6581;42.662;23.402;2024-03-02T13:37:45;13.35;;;7.05;;
13028;SDS011;6581;42.662;23.402;2024-03-02T13:40:11;13.68;;;7.18;;
13028;SDS011;6581;42.662;23.402;2024-03-02T13:42:41;16.48;;;6.63;;
13028;SDS011;6581;42.662;23.402;2024-03-02T13:45:06;13.63;;;6.60;;
13028;SDS011;6581;42.662;23.402;2024-03-02T13:47:33;13.90;;;6.70;;
13028;SDS011;6581;42.662;23.402;2024-03-02T13:49:58;11.80;;;6.53;;
13028;SDS011;6581;42.662;23.402;2024-03-02T13:52:23;13.80;;;6.55;;
13028;SDS011;6581;42.662;23.402;2024-03-02T13:54:50;13.50;;;6.75;;
13028;SDS011;6581;42.662;23.402;2024-03-02T13:57:17;13.98;;;7.18;;
13028;SDS011;6581;42.662;23.402;2024-03-02T13:59:45;13.73;;;6.63;;
13028;SDS011;6581;42.662;23.402;2024-03-02T14:02:11;13.55;;;7.53;;
13028;SDS011;6581;42.662;23.402;2024-03-02T14:04:37;16.70;;;8.15;;
13028;SDS011;6581;42.662;23.402;2024-03-02T14:07:03;13.40;;;7.40;;
13028;SDS011;6581;42.662;23.402;2024-03-02T14:09:32;12.65;;;7.35;;
13028;SDS011;6581;42.662;23.402;2024-03-02T14:11:57;12.93;;;7.25;;
13028;SDS011;6581;42.662;23.402;2024-03-02T14:14:25;14.85;;;7.60;;
13028;SDS011;6581;42.662;23.402;2024-03-02T14:16:51;15.65;;;7.65;;
13028;SDS011;6581;42.662;23.402;2024-03-02T14:19:17;13.25;;;7.30;;
13028;SDS011;6581;42.662;23.402;2024-03-02T14:21:43;14.40;;;7.18;;
13028;SDS011;6581;42.662;23.402;2024-03-02T14:24:09;15.25;;;7.85;;
13028;SDS011;6581;42.662;23.402;2024-03-02T14:26:34;13.73;;;7.00;;
13028;SDS011;6581;42.662;23.402;2024-03-02T14:29:02;16.48;;;7.15;;
13028;SDS011;6581;42.662;23.402;2024-03-02T14:31:28;13.40;;;7.15;;
13028;SDS011;6581;42.662;23.402;2024-03-02T14:33:54;14.63;;;7.35;;
13028;SDS011;6581;42.662;23.402;2024-03-02T14:36:20;15.38;;;8.20;;
13028;SDS011;6581;42.662;23.402;2024-03-02T14:38:45;13.82;;;7.72;;
13028;SDS011;6581;42.662;23.402;2024-03-02T14:41:11;14.25;;;7.70;;
13028;SDS011;6581;42.662;23.402;2024-03-02T14:43:37;14.30;;;7.65;;
13028;SDS011;6581;42.662;23.402;2024-03-02T14:46:03;16.48;;;8.52;;